createdAt,value
2022-08-29T00:04:49.349Z,43.5
2022-08-29T00:10:07.823Z,43.1
2022-08-29T00:15:26.591Z,42.7
2022-08-29T00:20:45.343Z,43.1
2022-08-29T00:26:03.844Z,42.9
2022-08-29T00:31:22.058Z,43.4
2022-08-29T00:36:40.247Z,43.2
2022-08-29T00:41:59.008Z,42.9
2022-08-29T00:47:18.702Z,43.3
2022-08-29T00:52:37.477Z,42.9
2022-08-29T00:57:55.954Z,42.9
2022-08-29T01:03:14.166Z,43.4
2022-08-29T01:08:32.652Z,43.6
2022-08-29T01:13:51.144Z,42.3
2022-08-29T01:19:09.902Z,43.3
2022-08-29T01:24:28.407Z,42.3
2022-08-29T01:29:47.166Z,43
2022-08-29T01:35:05.925Z,42.6
2022-08-29T01:40:24.380Z,43.8
2022-08-29T01:45:42.847Z,42.9
2022-08-29T01:51:01.158Z,42.1
2022-08-29T01:56:19.909Z,43.2
2022-08-29T02:01:38.398Z,42.5
2022-08-29T02:06:56.934Z,43.1
2022-08-29T02:12:14.861Z,42.9
2022-08-29T02:17:33.342Z,43.3
2022-08-29T02:22:51.850Z,42.8
2022-08-29T02:28:10.098Z,42.5
2022-08-29T02:33:29.260Z,42.3
2022-08-29T02:38:47.754Z,42.3
2022-08-29T02:43:50.618Z,42.9
2022-08-29T02:49:09.099Z,43.3
2022-08-29T02:54:27.589Z,43.1
2022-08-29T02:59:46.063Z,43.1
2022-08-29T03:05:04.822Z,43.2
2022-08-29T03:10:23.309Z,43.4
2022-08-29T03:15:41.795Z,43.2
2022-08-29T03:21:00.559Z,42.2
2022-08-29T03:26:19.051Z,42.9
2022-08-29T03:31:37.877Z,42.9
2022-08-29T03:36:56.153Z,42.3
2022-08-29T03:42:14.621Z,41.8
2022-08-29T03:47:33.112Z,42.4
2022-08-29T03:52:51.591Z,42.2
2022-08-29T03:58:10.362Z,42
2022-08-29T04:03:32.431Z,42.1
2022-08-29T04:08:51.196Z,41.7
2022-08-29T04:14:09.686Z,41.8
2022-08-29T04:19:28.159Z,42.3
2022-08-29T04:24:46.639Z,42.6
2022-08-29T04:30:04.565Z,42.9
2022-08-29T04:35:23.325Z,44
2022-08-29T04:40:41.867Z,45
2022-08-29T04:46:00.209Z,45.5
2022-08-29T04:51:18.740Z,46.4
2022-08-29T04:56:37.525Z,46.6
2022-08-29T05:01:55.697Z,46.8
2022-08-29T05:07:14.234Z,46.7
2022-08-29T05:12:32.173Z,45.7
2022-08-29T05:17:50.937Z,45.1
2022-08-29T05:23:09.135Z,44.9
2022-08-29T05:28:27.870Z,43.8
2022-08-29T05:33:46.593Z,43.6
2022-08-29T05:39:05.067Z,44
2022-08-29T05:44:23.279Z,43.3
2022-08-29T05:49:41.751Z,44.2
2022-08-29T05:54:59.966Z,44.1
2022-08-29T06:00:18.454Z,43.2
2022-08-29T06:05:36.674Z,42.5
2022-08-29T06:10:55.127Z,43.3
2022-08-29T06:16:13.706Z,43.5
2022-08-29T06:21:32.205Z,43.7
2022-08-29T06:26:50.684Z,42.5
2022-08-29T06:32:09.403Z,42.7
2022-08-29T06:37:27.887Z,42.8
2022-08-29T06:42:46.096Z,42.4
2022-08-29T06:48:04.854Z,43.3
2022-08-29T06:53:37.280Z,43.1
2022-08-29T06:58:55.731Z,43.4
2022-08-29T07:04:15.490Z,42.1
2022-08-29T07:09:33.951Z,43.4
2022-08-29T07:14:54.484Z,42.5
2022-08-29T07:20:13.194Z,43
2022-08-29T07:25:31.765Z,43.1
2022-08-29T07:30:49.817Z,42.8
2022-08-29T07:36:08.569Z,43.1
2022-08-29T07:41:26.776Z,42.8
2022-08-29T07:46:44.696Z,43.1
2022-08-29T07:52:02.904Z,44
2022-08-29T07:57:21.111Z,43.2
2022-08-29T08:02:40.169Z,43
2022-08-29T08:08:15.527Z,42.2
2022-08-29T08:13:34.084Z,43
2022-08-29T08:18:52.553Z,43
2022-08-29T08:24:11.030Z,42.3
2022-08-29T08:29:29.242Z,42.6
2022-08-29T08:34:47.730Z,42.6
2022-08-29T08:40:06.509Z,42.8
2022-08-29T08:45:24.763Z,42.8
2022-08-29T08:50:43.536Z,44.3
2022-08-29T08:56:01.729Z,43.4
2022-08-29T09:01:20.435Z,42.6
2022-08-29T09:06:38.984Z,42.5
2022-08-29T09:11:57.467Z,42.6
2022-08-29T09:17:15.936Z,42.4
2022-08-29T09:22:34.699Z,42.6
2022-08-29T09:27:53.462Z,43
2022-08-29T09:33:11.960Z,43.1
2022-08-29T09:38:30.251Z,43
2022-08-29T09:43:50.788Z,43.4
2022-08-29T09:49:09.261Z,43.4
2022-08-29T09:54:28.022Z,42.7
2022-08-29T09:59:49.846Z,42.9
2022-08-29T10:05:13.941Z,42.5
2022-08-29T10:10:31.862Z,42.2
2022-08-29T10:15:51.934Z,42.5
2022-08-29T10:21:10.620Z,43.6
2022-08-29T10:26:29.103Z,42.5
2022-08-29T10:31:47.292Z,42.7
2022-08-29T10:37:05.774Z,42.5
2022-08-29T10:42:24.515Z,43
2022-08-29T10:47:43.272Z,43.6
2022-08-29T10:53:01.750Z,42.5
2022-08-29T10:58:20.234Z,43.8
2022-08-29T11:03:38.471Z,43.7
2022-08-29T11:08:57.217Z,43.1
2022-08-29T11:14:15.979Z,44
2022-08-29T11:19:34.778Z,43.7
2022-08-29T11:24:53.244Z,43.2
2022-08-29T11:30:13.089Z,42.6
2022-08-29T11:35:31.562Z,43.6
2022-08-29T11:41:29.362Z,43.8
2022-08-29T11:46:57.249Z,43.5
2022-08-29T11:52:22.696Z,42.6
2022-08-29T11:57:40.864Z,41.7
2022-08-29T12:02:59.325Z,41.3
2022-08-29T12:08:38.371Z,40.9
2022-08-29T12:13:56.570Z,40.6
2022-08-29T12:19:15.052Z,40.3
2022-08-29T12:24:33.545Z,40.2
2022-08-29T12:29:52.005Z,40.4
2022-08-29T12:35:14.916Z,40.3
2022-08-29T12:40:33.579Z,39.4
2022-08-29T12:45:51.972Z,38.8
2022-08-29T12:51:10.453Z,40.2
2022-08-29T12:56:28.646Z,40
2022-08-29T13:01:47.250Z,41
2022-08-29T13:07:05.440Z,39.6
2022-08-29T13:12:23.920Z,37.3
2022-08-29T13:17:42.680Z,37.9
2022-08-29T13:23:01.447Z,37.8
2022-08-29T13:28:19.646Z,39.5
2022-08-29T13:33:38.102Z,40.1
2022-08-29T13:38:56.555Z,39
2022-08-29T13:44:18.277Z,39.6
2022-08-29T13:49:36.488Z,39.8
2022-08-29T13:54:54.691Z,40.5
2022-08-29T14:00:13.178Z,41.3
2022-08-29T14:05:31.674Z,40.6
2022-08-29T14:10:34.527Z,42.6
2022-08-29T14:15:52.872Z,41.4
2022-08-29T14:21:11.372Z,40.9
2022-08-29T14:26:29.567Z,40.8
2022-08-29T14:31:48.043Z,40.1
2022-08-29T14:37:06.878Z,40.7
2022-08-29T14:42:25.292Z,40.8
2022-08-29T14:47:44.055Z,41.4
2022-08-29T14:53:02.811Z,41.3
2022-08-29T14:58:21.291Z,41.3
2022-08-29T15:03:39.789Z,42.6
2022-08-29T15:08:58.511Z,43
2022-08-29T15:14:16.705Z,43.2
2022-08-29T15:20:38.614Z,43.8
2022-08-29T15:25:57.609Z,42.9
2022-08-29T15:31:15.918Z,42.6
2022-08-29T15:36:34.103Z,43
2022-08-29T15:41:52.581Z,42.8
2022-08-29T15:47:12.385Z,43.3
2022-08-29T15:52:31.970Z,43.6
2022-08-29T15:57:53.651Z,43.7
2022-08-29T16:03:12.113Z,44.5
2022-08-29T16:08:30.890Z,44.2
2022-08-29T16:13:52.851Z,43.9
2022-08-29T16:19:16.578Z,43.6
2022-08-29T16:24:35.343Z,45
2022-08-29T16:29:53.855Z,46.7
2022-08-29T16:35:12.606Z,46.9
2022-08-29T16:40:31.492Z,45.8
2022-08-29T16:45:49.974Z,45.5
2022-08-29T16:51:08.781Z,45
2022-08-29T16:56:27.687Z,45.5
2022-08-29T17:01:46.694Z,44.4
2022-08-29T17:07:05.438Z,46.8
2022-08-29T17:12:24.872Z,45.5
2022-08-29T17:17:43.346Z,46.2
2022-08-29T17:23:01.250Z,46.4
2022-08-29T17:28:19.767Z,47
2022-08-29T17:33:38.276Z,46.6
2022-08-29T17:38:57.589Z,47.7
2022-08-29T17:44:15.795Z,47
2022-08-29T17:49:34.281Z,47.4
2022-08-29T17:54:53.044Z,48.3
2022-08-29T18:00:11.799Z,47.9
2022-08-29T18:05:30.264Z,47.3
2022-08-29T18:10:48.753Z,47.9
2022-08-29T18:16:07.528Z,46.6
2022-08-29T18:21:26.278Z,47.1
2022-08-29T18:26:44.499Z,46.6
2022-08-29T18:32:02.987Z,46.6
2022-08-29T18:37:21.746Z,47.1
2022-08-29T18:42:42.333Z,47.1
2022-08-29T18:48:01.074Z,47.8
2022-08-29T18:53:19.542Z,47.1
2022-08-29T18:58:37.759Z,47.5
2022-08-29T19:03:56.505Z,47.9
2022-08-29T19:09:14.994Z,46.6
2022-08-29T19:14:39.421Z,48.1
2022-08-29T19:20:12.823Z,48
2022-08-29T19:25:31.584Z,47.3
2022-08-29T19:30:50.071Z,48.2
2022-08-29T19:36:08.816Z,48.2
2022-08-29T19:41:27.286Z,48.1
2022-08-29T19:46:50.211Z,48.5
2022-08-29T19:52:10.461Z,47.5
2022-08-29T19:57:28.930Z,47.9
2022-08-29T20:02:47.692Z,47.4
2022-08-29T20:08:08.293Z,47.3
2022-08-29T20:13:36.203Z,47.8
2022-08-29T20:18:55.733Z,47.9
2022-08-29T20:24:17.624Z,48.2
2022-08-29T20:34:54.634Z,47.7
2022-08-29T20:40:13.340Z,47.5
2022-08-29T20:45:31.616Z,47.6
2022-08-29T20:50:50.079Z,46.6
2022-08-29T20:56:08.830Z,47.3
2022-08-29T21:01:27.844Z,46.6
2022-08-29T21:06:46.313Z,46.6
2022-08-29T21:12:04.232Z,46.9
2022-08-29T21:17:22.969Z,46.7
2022-08-29T21:22:41.703Z,46.1
2022-08-29T21:28:00.261Z,46.4
2022-08-29T21:33:18.998Z,46.6
2022-08-29T21:38:37.163Z,46.3
2022-08-29T21:43:55.610Z,45.8
2022-08-29T21:49:14.091Z,45.2
2022-08-29T21:54:32.863Z,45.3
2022-08-29T21:59:51.354Z,45.2
2022-08-29T22:05:10.155Z,46
2022-08-29T22:10:28.915Z,45.1
2022-08-29T22:15:31.784Z,45.5
2022-08-29T22:20:56.058Z,45.5
2022-08-29T22:26:14.817Z,46.3
2022-08-29T22:31:33.509Z,45.3
2022-08-29T22:36:36.683Z,45.6
2022-08-29T22:41:55.174Z,44.8
2022-08-29T22:47:13.653Z,45.6
2022-08-29T22:52:16.797Z,46
2022-08-29T22:57:35.563Z,45.7
2022-08-29T23:02:54.336Z,46
2022-08-29T23:08:12.535Z,45.9
2022-08-29T23:13:31.741Z,46.6
2022-08-29T23:18:50.518Z,46.1
2022-08-29T23:24:09.279Z,46.4
2022-08-29T23:29:27.762Z,46.4
2022-08-29T23:34:46.530Z,46.4
2022-08-29T23:40:05.422Z,46.6
2022-08-29T23:45:23.747Z,45.5
2022-08-29T23:50:49.115Z,46.3
2022-08-29T23:56:07.027Z,45.6
